createdAt,value
2018-08-10T00:00:24.747Z,51.50
2018-08-10T00:02:53.337Z,52.06
2018-08-10T00:05:21.870Z,51.21
2018-08-10T00:07:50.214Z,51.45
2018-08-10T00:10:18.802Z,52.36
2018-08-10T00:12:47.751Z,52.16
2018-08-10T00:15:17.507Z,52.04
2018-08-10T00:17:45.949Z,52.26
2018-08-10T00:20:15.584Z,52.61
2018-08-10T00:22:44.471Z,52.76
2018-08-10T00:25:16.426Z,52.19
2018-08-10T00:27:44.917Z,52.48
2018-08-10T00:30:16.209Z,53.03
2018-08-10T00:32:45.782Z,53.73
2018-08-10T00:35:14.076Z,53.40
2018-08-10T00:37:43.398Z,52.90
2018-08-10T00:40:26.622Z,52.58
2018-08-10T00:42:54.966Z,54.20
2018-08-10T00:45:23.360Z,54.27
2018-08-10T00:47:51.784Z,54.01
2018-08-10T00:50:20.620Z,52.91
2018-08-10T00:52:49.002Z,53.15
2018-08-10T00:55:18.266Z,53.03
2018-08-10T00:57:48.112Z,53.04
2018-08-10T01:00:22.524Z,52.29
2018-08-10T01:02:51.671Z,52.33
2018-08-10T01:05:19.898Z,51.86
2018-08-10T01:07:48.304Z,52.72
2018-08-10T01:10:18.874Z,53.56
2018-08-10T01:12:47.216Z,52.96
2018-08-10T01:15:16.624Z,52.94
2018-08-10T01:17:45.523Z,53.17
2018-08-10T01:20:16.392Z,52.89
2018-08-10T01:22:50.446Z,52.17
2018-08-10T01:25:19.952Z,52.38
2018-08-10T01:27:53.937Z,52.60
2018-08-10T01:30:22.271Z,53.14
2018-08-10T01:32:51.333Z,52.67
2018-08-10T01:35:20.194Z,51.59
2018-08-10T01:37:48.324Z,51.85
2018-08-10T01:40:17.703Z,51.73
2018-08-10T01:42:46.053Z,51.15
2018-08-10T01:45:14.493Z,51.69
2018-08-10T01:47:42.874Z,50.67
2018-08-10T01:50:11.267Z,50.98
2018-08-10T01:52:39.633Z,51.50
2018-08-10T01:55:08.718Z,51.21
2018-08-10T01:57:37.615Z,50.67
2018-08-10T02:00:07.255Z,50.79
2018-08-10T02:02:35.795Z,51.42
2018-08-10T02:05:05.165Z,50.41
2018-08-10T02:07:37.506Z,51.17
2018-08-10T02:10:10.561Z,50.51
2018-08-10T02:12:39.562Z,51.56
2018-08-10T02:15:11.720Z,51.81
2018-08-10T02:17:40.053Z,51.19
2018-08-10T02:20:11.201Z,51.12
2018-08-10T02:22:39.509Z,50.84
2018-08-10T02:25:09.668Z,51.29
2018-08-10T02:27:38.070Z,51.56
2018-08-10T02:30:08.974Z,52.33
2018-08-10T02:32:37.639Z,52.00
2018-08-10T02:35:06.212Z,52.30
2018-08-10T02:37:34.456Z,51.88
2018-08-10T02:40:02.909Z,52.28
2018-08-10T02:42:32.427Z,51.96
2018-08-10T02:45:00.656Z,52.10
2018-08-10T02:47:33.791Z,51.80
2018-08-10T02:50:02.230Z,51.79
2018-08-10T02:52:30.502Z,52.63
2018-08-10T02:54:58.728Z,52.22
2018-08-10T02:57:27.091Z,51.75
2018-08-10T02:59:55.364Z,51.48
2018-08-10T03:02:23.556Z,52.61
2018-08-10T03:04:51.827Z,51.98
2018-08-10T03:07:20.052Z,52.01
2018-08-10T03:09:48.300Z,52.18
2018-08-10T03:12:16.542Z,51.94
2018-08-10T03:14:44.838Z,52.02
2018-08-10T03:17:13.095Z,52.41
2018-08-10T03:19:41.272Z,52.47
2018-08-10T03:22:09.584Z,52.60
2018-08-10T03:24:37.955Z,52.07
2018-08-10T03:27:07.867Z,52.87
2018-08-10T03:29:36.590Z,52.96
2018-08-10T03:32:05.434Z,52.16
2018-08-10T03:34:33.773Z,53.13
2018-08-10T03:37:02.006Z,53.83
2018-08-10T03:39:30.207Z,54.00
2018-08-10T03:41:58.379Z,53.06
2018-08-10T03:44:26.672Z,53.54
2018-08-10T03:46:55.550Z,52.63
2018-08-10T03:49:23.852Z,51.54
2018-08-10T03:51:52.280Z,51.87
2018-08-10T03:54:26.072Z,51.63
2018-08-10T03:56:54.336Z,51.84
2018-08-10T03:59:22.749Z,51.29
2018-08-10T04:01:51.128Z,51.30
2018-08-10T04:04:19.478Z,51.61
2018-08-10T04:06:47.910Z,51.00
2018-08-10T04:09:16.227Z,51.14
2018-08-10T04:11:51.253Z,51.82
2018-08-10T04:14:19.508Z,51.48
2018-08-10T04:16:47.885Z,52.19
2018-08-10T04:19:16.162Z,52.58
2018-08-10T04:21:45.240Z,52.10
2018-08-10T04:24:13.404Z,52.89
2018-08-10T04:26:41.649Z,53.16
2018-08-10T04:29:09.902Z,52.38
2018-08-10T04:31:38.247Z,52.38
2018-08-10T04:34:06.374Z,52.46
2018-08-10T04:36:34.653Z,52.21
2018-08-10T04:39:05.113Z,52.36
2018-08-10T04:41:34.529Z,52.00
2018-08-10T04:44:02.859Z,51.46
2018-08-10T04:46:31.969Z,51.69
2018-08-10T04:49:00.494Z,51.38
2018-08-10T04:51:28.871Z,51.27
2018-08-10T04:54:04.375Z,51.01
2018-08-10T04:56:32.659Z,51.41
2018-08-10T04:59:01.046Z,51.09
2018-08-10T05:01:29.349Z,51.56
2018-08-10T05:03:57.795Z,51.57
2018-08-10T05:06:26.097Z,51.61
2018-08-10T05:08:54.386Z,51.87
2018-08-10T05:11:22.754Z,51.98
2018-08-10T05:13:50.934Z,51.93
2018-08-10T05:16:42.488Z,52.29
2018-08-10T05:19:11.180Z,52.20
2018-08-10T05:21:39.651Z,52.46
2018-08-10T05:24:08.518Z,52.10
2018-08-10T05:26:36.868Z,52.53
2018-08-10T05:29:05.618Z,52.81
2018-08-10T05:31:33.912Z,52.16
2018-08-10T05:34:02.247Z,50.57
2018-08-10T05:36:30.618Z,49.92
2018-08-10T05:38:59.006Z,48.71
2018-08-10T05:41:27.458Z,47.18
2018-08-10T05:43:56.270Z,46.86
2018-08-10T05:46:24.742Z,46.46
2018-08-10T05:48:54.821Z,47.20
2018-08-10T05:57:00.546Z,46.54
2018-08-10T05:59:39.965Z,47.13
2018-08-10T06:02:10.690Z,46.55
2018-08-10T06:04:39.606Z,46.41
2018-08-10T06:07:08.797Z,45.11
2018-08-10T06:09:38.723Z,44.84
2018-08-10T06:12:06.987Z,44.50
2018-08-10T06:14:40.569Z,44.86
2018-08-10T06:17:11.467Z,45.37
2018-08-10T06:19:43.598Z,44.86
2018-08-10T06:26:39.385Z,44.50
2018-08-10T06:29:10.753Z,44.66
2018-08-10T06:31:40.497Z,44.82
2018-08-10T06:34:09.749Z,44.91
2018-08-10T06:36:43.511Z,43.95
2018-08-10T06:39:26.549Z,44.20
2018-08-10T06:41:59.083Z,43.73
2018-08-10T06:44:27.715Z,42.70
2018-08-10T06:46:55.981Z,43.07
2018-08-10T06:49:24.350Z,43.74
2018-08-10T06:51:53.766Z,43.02
2018-08-10T06:54:22.173Z,43.11
2018-08-10T06:56:51.516Z,42.19
2018-08-10T06:59:19.849Z,42.37
2018-08-10T07:02:00.978Z,41.32
2018-08-10T07:04:30.937Z,40.93
2018-08-10T07:07:00.587Z,41.63
2018-08-10T07:09:35.075Z,41.35
2018-08-10T07:14:13.969Z,39.91
2018-08-10T07:16:42.514Z,35.38
2018-08-10T07:19:19.600Z,34.79
2018-08-10T07:21:51.354Z,35.43
2018-08-10T07:24:22.144Z,36.89
2018-08-10T07:27:04.198Z,37.83
2018-08-10T07:29:39.738Z,38.17
2018-08-10T07:32:08.373Z,38.30
2018-08-10T07:34:49.048Z,38.90
2018-08-10T07:37:18.351Z,39.17
2018-08-10T07:39:48.574Z,38.82
2018-08-10T07:42:17.096Z,37.88
2018-08-10T07:44:47.051Z,38.24
2018-08-10T07:47:15.890Z,39.50
2018-08-10T07:49:46.171Z,38.57
2018-08-10T07:52:20.738Z,38.20
2018-08-10T07:54:49.157Z,37.50
2018-08-10T07:57:17.615Z,37.50
2018-08-10T07:59:50.723Z,37.67
2018-08-10T08:02:20.280Z,37.22
2018-08-10T08:04:50.037Z,35.54
2018-08-10T08:07:20.497Z,34.73
2018-08-10T08:09:48.880Z,34.16
2018-08-10T08:12:22.538Z,32.91
2018-08-10T08:14:58.800Z,30.10
2018-08-10T08:17:28.430Z,30.93
2018-08-10T08:20:06.064Z,29.34
2018-08-10T08:22:34.619Z,30.25
2018-08-10T08:25:05.225Z,29.96
2018-08-10T08:27:36.942Z,30.10
2018-08-10T08:30:07.639Z,30.27
2018-08-10T08:32:36.286Z,31.92
2018-08-10T08:35:05.067Z,32.18
2018-08-10T08:37:40.252Z,34.33
2018-08-10T08:40:21.587Z,33.38
2018-08-10T08:42:52.153Z,31.76
2018-08-10T08:46:02.334Z,32.21
2018-08-10T08:48:37.917Z,33.24
2018-08-10T08:51:10.362Z,32.99
2018-08-10T08:53:38.685Z,33.94
2018-08-10T08:56:11.680Z,35.99
2018-08-10T08:58:59.116Z,36.57
2018-08-10T09:01:37.200Z,37.12
2018-08-10T09:04:26.396Z,36.32
2018-08-10T09:06:58.288Z,35.36
2018-08-10T09:12:19.112Z,32.58
2018-08-10T09:15:05.000Z,30.15
2018-08-10T09:17:33.664Z,30.37
2018-08-10T09:20:03.145Z,29.18
2018-08-10T09:22:31.882Z,29.04
2018-08-10T09:25:00.397Z,28.46
2018-08-10T09:27:28.952Z,26.15
2018-08-10T09:29:57.455Z,21.78
2018-08-10T09:32:36.773Z,17.50
2018-08-10T09:35:35.190Z,17.14
2018-08-10T09:38:14.587Z,17.50
2018-08-10T10:05:10.999Z,12.47
2018-08-10T10:07:39.271Z,11.13
2018-08-10T10:10:08.141Z,10.69
2018-08-10T10:12:36.596Z,10.09
2018-08-10T10:15:06.285Z,9.61
2018-08-10T10:17:36.758Z,10.32
2018-08-10T10:20:06.965Z,10.64
2018-08-10T10:22:36.043Z,13.45
2018-08-10T10:25:05.525Z,12.33
2018-08-10T10:27:44.568Z,10.82
2018-08-10T10:30:21.370Z,10.09
2018-08-10T10:32:52.793Z,10.73
2018-08-10T10:35:21.659Z,8.57
2018-08-10T10:37:51.619Z,7.94
2018-08-10T10:43:22.846Z,7.48
2018-08-10T10:45:56.269Z,7.23
2018-08-10T10:48:35.468Z,7.27
2018-08-10T10:51:23.675Z,8.18
2018-08-10T10:53:52.554Z,8.10
2018-08-10T10:56:26.157Z,8.21
2018-08-10T11:00:32.908Z,10.28
2018-08-10T11:17:58.480Z,15.57
2018-08-10T11:20:40.903Z,11.71
2018-08-10T11:23:13.721Z,10.40
2018-08-10T11:25:41.924Z,9.78
2018-08-10T11:28:12.922Z,10.03
2018-08-10T11:30:42.220Z,9.57
2018-08-10T11:33:14.196Z,8.93
2018-08-10T11:35:44.851Z,8.24
2018-08-10T11:38:13.515Z,7.11
2018-08-10T11:44:29.854Z,7.64
2018-08-10T11:46:58.125Z,7.72
2018-08-10T11:49:26.358Z,9.54
2018-08-10T11:51:54.580Z,8.74
2018-08-10T11:54:22.818Z,7.79
2018-08-10T11:56:51.731Z,6.00
2018-08-10T11:59:20.572Z,6.19
2018-08-10T12:01:49.071Z,6.16
2018-08-10T12:04:17.274Z,6.50
2018-08-10T12:06:45.620Z,6.44
2018-08-10T12:09:15.068Z,5.85
2018-08-10T12:11:43.246Z,7.03
2018-08-10T12:14:11.390Z,7.31
2018-08-10T12:16:39.532Z,5.45
2018-08-10T12:19:07.743Z,5.93
2018-08-10T12:21:35.851Z,7.00
2018-08-10T12:24:04.141Z,5.45
2018-08-10T12:26:32.380Z,5.46
2018-08-10T12:29:00.504Z,5.54
2018-08-10T12:31:28.825Z,6.11
2018-08-10T12:33:57.051Z,6.12
2018-08-10T12:36:25.324Z,5.87
2018-08-10T12:38:53.545Z,5.75
2018-08-10T12:41:21.749Z,6.58
2018-08-10T12:43:50.045Z,7.09
2018-08-10T12:46:18.279Z,7.42
2018-08-10T12:48:46.448Z,5.41
2018-08-10T12:51:14.825Z,5.84
2018-08-10T12:53:43.027Z,6.05
2018-08-10T12:56:11.269Z,5.98
2018-08-10T12:58:39.543Z,6.72
2018-08-10T13:01:08.303Z,6.34
2018-08-10T13:03:36.496Z,7.08
2018-08-10T13:06:05.345Z,8.12
2018-08-10T13:08:33.654Z,6.99
2018-08-10T13:11:01.906Z,7.83
2018-08-10T13:13:30.125Z,7.65
2018-08-10T13:15:58.262Z,7.71
2018-08-10T13:18:26.519Z,7.85
2018-08-10T13:20:54.690Z,8.14
2018-08-10T13:23:22.922Z,8.97
2018-08-10T13:25:51.793Z,8.91
2018-08-10T13:28:20.006Z,8.53
2018-08-10T13:30:48.265Z,8.34
2018-08-10T13:33:16.702Z,8.14
2018-08-10T13:35:44.940Z,8.24
2018-08-10T13:38:13.310Z,7.86
2018-08-10T13:40:41.462Z,7.70
2018-08-10T13:43:09.730Z,7.36
2018-08-10T13:45:38.072Z,7.45
2018-08-10T13:48:06.600Z,6.76
2018-08-10T13:50:34.808Z,8.03
2018-08-10T13:53:03.041Z,9.00
2018-08-10T13:55:31.286Z,8.70
2018-08-10T13:57:59.490Z,8.30
2018-08-10T14:00:27.777Z,9.90
2018-08-10T14:02:55.964Z,11.09
2018-08-10T14:05:24.588Z,9.52
2018-08-10T14:07:53.336Z,9.21
2018-08-10T14:10:21.683Z,11.58
2018-08-10T14:12:49.876Z,14.24
2018-08-10T14:15:18.157Z,15.24
2018-08-10T14:17:46.369Z,15.72
2018-08-10T14:20:14.641Z,17.18
2018-08-10T14:22:42.878Z,18.46
2018-08-10T14:25:11.843Z,18.80
2018-08-10T14:27:40.365Z,19.64
2018-08-10T14:30:13.601Z,20.42
2018-08-10T14:32:41.825Z,20.45
2018-08-10T14:35:10.593Z,20.37
2018-08-10T14:37:38.891Z,21.26
2018-08-10T14:40:09.991Z,21.03
2018-08-10T14:42:38.227Z,21.20
2018-08-10T14:45:10.789Z,21.96
2018-08-10T14:47:38.933Z,21.85
2018-08-10T14:50:10.738Z,22.23
2018-08-10T14:52:39.489Z,22.64
2018-08-10T14:55:10.497Z,23.47
2018-08-10T14:57:38.781Z,23.11
2018-08-10T15:00:16.897Z,22.68
2018-08-10T15:03:13.747Z,22.08
2018-08-10T15:05:55.840Z,22.98
2018-08-10T15:08:35.795Z,21.95
2018-08-10T15:11:14.416Z,21.64
2018-08-10T15:27:53.646Z,22.60
2018-08-10T15:43:56.566Z,23.10
2018-08-10T15:46:25.566Z,23.18
2018-08-10T15:48:58.580Z,23.15
2018-08-10T15:51:27.080Z,22.61
2018-08-10T15:53:55.281Z,22.76
2018-08-10T15:56:23.635Z,23.33
2018-08-10T15:58:51.756Z,22.33
2018-08-10T16:01:19.950Z,22.92
2018-08-10T16:03:48.326Z,22.47
2018-08-10T16:06:16.546Z,22.58
2018-08-10T16:08:44.677Z,21.61
2018-08-10T16:11:13.612Z,22.66
2018-08-10T16:13:42.930Z,22.31
2018-08-10T16:16:11.851Z,22.71
2018-08-10T16:18:40.920Z,21.92
2018-08-10T16:21:12.911Z,21.75
2018-08-10T16:23:41.145Z,22.17
2018-08-10T16:26:09.367Z,22.03
2018-08-10T16:28:38.465Z,21.36
2018-08-10T16:31:06.665Z,21.74
2018-08-10T16:33:34.849Z,22.01
2018-08-10T16:36:05.390Z,21.72
2018-08-10T16:38:33.957Z,21.45
2018-08-10T16:41:03.447Z,21.69
2018-08-10T16:43:32.263Z,22.28
2018-08-10T16:46:01.358Z,22.44
2018-08-10T16:48:30.890Z,23.05
2018-08-10T16:50:59.838Z,23.15
2018-08-10T16:53:29.562Z,22.94
2018-08-10T16:55:59.860Z,22.63
2018-08-10T16:58:28.782Z,23.05
2018-08-10T17:01:00.834Z,22.82
2018-08-10T17:03:29.622Z,22.88
2018-08-10T17:05:57.958Z,22.65
2018-08-10T17:08:27.410Z,23.01
2018-08-10T17:10:56.272Z,23.88
2018-08-10T17:13:25.712Z,24.13
2018-08-10T17:15:54.666Z,24.19
2018-08-10T17:18:24.555Z,24.67
2018-08-10T17:20:53.522Z,25.14
2018-08-10T17:23:23.006Z,25.07
2018-08-10T17:25:51.298Z,24.91
2018-08-10T17:28:19.710Z,24.99
2018-08-10T17:30:49.508Z,24.14
2018-08-10T17:33:18.728Z,23.96
2018-08-10T17:35:48.577Z,23.92
2018-08-10T17:38:17.096Z,24.95
2018-08-10T17:40:47.466Z,24.79
2018-08-10T17:43:17.184Z,24.28
2018-08-10T17:45:45.454Z,24.45
2018-08-10T17:48:14.582Z,24.91
2018-08-10T17:50:42.710Z,25.46
2018-08-10T17:53:11.460Z,24.90
2018-08-10T17:55:39.824Z,25.25
2018-08-10T17:58:08.252Z,25.76
2018-08-10T18:00:38.502Z,26.06
2018-08-10T18:03:08.738Z,26.19
2018-08-10T18:05:38.348Z,25.83
2018-08-10T18:08:07.421Z,26.69
2018-08-10T18:10:36.647Z,26.14
2018-08-10T18:13:04.968Z,26.64
2018-08-10T18:15:34.068Z,26.72
2018-08-10T18:18:02.277Z,27.80
2018-08-10T18:20:30.589Z,28.16
2018-08-10T18:22:58.884Z,27.58
2018-08-10T18:25:27.099Z,28.45
2018-08-10T18:27:55.308Z,28.30
2018-08-10T18:30:24.704Z,29.15
2018-08-10T18:32:53.260Z,29.11
2018-08-10T18:35:21.719Z,28.96
2018-08-10T18:37:51.385Z,28.84
2018-08-10T18:40:20.231Z,29.77
2018-08-10T18:42:49.095Z,30.05
2018-08-10T18:45:19.769Z,30.19
2018-08-10T18:47:48.193Z,29.11
2018-08-10T18:50:17.967Z,29.69
2018-08-10T18:52:46.311Z,30.30
2018-08-10T18:55:19.798Z,29.92
2018-08-10T18:57:48.807Z,29.95
2018-08-10T19:00:20.178Z,30.66
2018-08-10T19:02:48.382Z,30.71
2018-08-10T19:05:17.242Z,29.74
2018-08-10T19:07:46.289Z,30.07
2018-08-10T19:10:18.799Z,30.03
2018-08-10T19:12:47.118Z,30.37
2018-08-10T19:15:15.433Z,31.51
2018-08-10T19:17:43.748Z,30.97
2018-08-10T19:20:13.041Z,30.92
2018-08-10T19:22:41.544Z,32.21
2018-08-10T19:25:10.947Z,32.58
2018-08-10T19:27:39.517Z,32.40
2018-08-10T19:30:11.398Z,32.34
2018-08-10T19:32:39.750Z,32.60
2018-08-10T19:35:08.036Z,32.15
2018-08-10T19:37:36.896Z,32.33
2018-08-10T19:40:08.169Z,33.01
2018-08-10T19:42:36.516Z,32.85
2018-08-10T19:45:06.815Z,32.18
2018-08-10T19:47:35.201Z,32.50
2018-08-10T19:50:04.068Z,31.52
2018-08-10T19:52:32.361Z,31.99
2018-08-10T19:55:00.544Z,33.42
2018-08-10T19:57:28.865Z,33.48
2018-08-10T19:59:57.318Z,33.77
2018-08-10T20:02:25.550Z,34.46
2018-08-10T20:04:53.764Z,34.30
2018-08-10T20:07:21.990Z,33.22
2018-08-10T20:09:50.262Z,34.47
2018-08-10T20:12:18.868Z,34.20
2018-08-10T20:14:47.052Z,34.63
2018-08-10T20:17:15.226Z,34.84
2018-08-10T20:19:43.430Z,35.57
2018-08-10T20:22:16.937Z,35.41
2018-08-10T20:24:46.270Z,35.68
2018-08-10T20:27:14.595Z,35.92
2018-08-10T20:29:42.973Z,36.04
2018-08-10T20:32:11.183Z,36.08
2018-08-10T20:34:39.481Z,36.25
2018-08-10T20:37:07.863Z,35.15
2018-08-10T20:39:36.178Z,34.83
2018-08-10T20:42:04.673Z,34.69
2018-08-10T20:44:32.982Z,34.34
2018-08-10T20:47:01.267Z,35.76
2018-08-10T20:49:30.911Z,36.24
2018-08-10T20:51:59.291Z,36.29
2018-08-10T20:54:28.268Z,35.73
2018-08-10T20:56:56.500Z,36.32
2018-08-10T20:59:24.756Z,34.88
2018-08-10T21:01:52.965Z,34.61
2018-08-10T21:04:21.328Z,35.63
2018-08-10T21:06:49.475Z,36.72
2018-08-10T21:09:17.634Z,36.63
2018-08-10T21:11:45.897Z,36.77
2018-08-10T21:16:41.877Z,37.26
2018-08-10T21:19:10.868Z,36.82
2018-08-10T21:21:39.016Z,37.48
2018-08-10T21:24:07.286Z,35.95
2018-08-10T21:26:35.601Z,36.26
2018-08-10T21:29:03.916Z,35.53
2018-08-10T21:31:33.116Z,36.13
2018-08-10T21:34:01.922Z,38.91
2018-08-10T21:36:30.219Z,39.10
2018-08-10T21:38:58.419Z,38.97
2018-08-10T21:41:26.650Z,39.21
2018-08-10T21:43:54.951Z,40.69
2018-08-10T21:46:23.202Z,40.58
2018-08-10T21:48:52.113Z,42.23
2018-08-10T21:51:20.286Z,42.27
2018-08-10T21:53:48.458Z,41.21
2018-08-10T21:56:16.818Z,40.54
2018-08-10T21:58:44.985Z,40.80
2018-08-10T22:01:13.179Z,41.02
2018-08-10T22:03:41.407Z,40.77
2018-08-10T22:06:09.661Z,39.37
2018-08-10T22:08:38.009Z,39.12
2018-08-10T22:11:06.249Z,39.33
2018-08-10T22:13:40.221Z,39.25
2018-08-10T22:16:13.997Z,40.05
2018-08-10T22:18:49.510Z,39.92
2018-08-10T22:21:17.787Z,39.86
2018-08-10T22:23:46.065Z,39.89
2018-08-10T22:26:14.531Z,39.97
2018-08-10T22:28:42.641Z,39.60
2018-08-10T22:31:10.845Z,39.85
2018-08-10T22:33:39.094Z,39.89
2018-08-10T22:36:07.307Z,40.47
2018-08-10T22:38:37.136Z,40.50
2018-08-10T22:41:05.495Z,40.71
2018-08-10T22:43:33.737Z,40.92
2018-08-10T22:46:01.973Z,40.76
2018-08-10T22:48:30.429Z,41.32
2018-08-10T22:50:58.803Z,40.76
2018-08-10T22:53:26.966Z,41.08
2018-08-10T22:55:56.187Z,40.57
2018-08-10T22:58:24.333Z,41.67
2018-08-10T23:00:52.629Z,41.09
2018-08-10T23:03:21.125Z,42.50
2018-08-10T23:05:49.149Z,42.03
2018-08-10T23:08:17.387Z,42.49
2018-08-10T23:10:45.577Z,43.45
2018-08-10T23:13:13.976Z,43.59
2018-08-10T23:15:42.247Z,43.80
2018-08-10T23:18:11.116Z,44.26
2018-08-10T23:20:39.909Z,44.29
2018-08-10T23:23:08.807Z,44.04
2018-08-10T23:25:36.997Z,43.78
2018-08-10T23:28:05.222Z,41.82
2018-08-10T23:30:33.430Z,41.96
2018-08-10T23:33:01.536Z,40.65
2018-08-10T23:35:29.833Z,40.27
2018-08-10T23:37:58.035Z,39.28
2018-08-10T23:40:26.262Z,39.44
2018-08-10T23:42:54.446Z,39.21
2018-08-10T23:45:22.636Z,39.48
2018-08-10T23:47:50.971Z,42.27
2018-08-10T23:50:19.138Z,42.83
2018-08-10T23:52:48.152Z,44.15
2018-08-10T23:55:18.568Z,43.40
2018-08-10T23:57:47.035Z,43.92
